Terminal Aerodrome Forecast
Issued by NWS Newport/Morehead City, NC

Home | Current Version | Previous Version | Graphics & Text | Print | Product List | Glossary On
Versions: 1 2 3 4 5 6 7 8 9 10 11 12 13 14 15 16
498
FTUS42 KMHX 230535
TAFEWN
TAF
KEWN 230535Z 2306/2406 VRB04KT P6SM BKN020
     FM230800 VRB04KT P6SM BKN010
     FM231400 33005KT P6SM VCSH BKN020
     FM231500 33010KT P6SM VCTS BKN025CB
     FM232300 34006KT P6SM OVC050=

USA.gov is the U.S. government's official web portal to all federal, state and local government web resources and services.